Time;durP1;ratioP1;P1;durP2;ratioP2;P2;SDS_P1;SDS_P2;PMS_P1;PMS_P2;Temp;Humidity;BMP_temperature;BMP_pressure;BME280_temperature;BME280_humidity;BME280_pressure;Samples;Min_cycle;Max_cycle;Signal;HPM_P1;HPM_P2
2023/06/04 00:01:58;;;;;;;17.85;5.30;;;;;;;;;;5105152;28;20044;-76
2023/06/04 00:04:30;;;;;;;9.73;5.10;;;;;;;;;;5104665;28;20039;-75
2023/06/04 00:06:59;;;;;;;12.43;4.80;;;;;;;;;;5105207;28;20051;-76
2023/06/04 00:09:30;;;;;;;14.35;4.78;;;;;;;;;;5104310;28;20043;-76
2023/06/04 00:12:00;;;;;;;15.85;4.30;;;;;;;;;;5104414;28;20047;-76
2023/06/04 00:14:31;;;;;;;14.85;4.65;;;;;;;;;;5086424;28;20043;-76
2023/06/04 00:17:01;;;;;;;15.18;5.65;;;;;;;;;;5083798;28;20044;-75
2023/06/04 00:19:33;;;;;;;17.58;5.13;;;;;;;;;;5083936;28;20044;-77
2023/06/04 00:22:06;;;;;;;18.85;4.75;;;;;;;;;;5084135;28;20052;-75
2023/06/04 00:24:41;;;;;;;10.43;4.90;;;;;;;;;;5084732;28;20106;-74
2023/06/04 00:27:13;;;;;;;11.88;5.13;;;;;;;;;;5084834;28;20437;-74
2023/06/04 00:29:44;;;;;;;10.55;4.22;;;;;;;;;;5084643;28;20048;-76
2023/06/04 00:32:15;;;;;;;13.98;4.43;;;;;;;;;;5065237;28;20044;-74
2023/06/04 00:35:01;;;;;;;14.52;4.85;;;;;;;;;;5049377;28;20048;-75
2023/06/04 00:37:32;;;;;;;8.05;3.72;;;;;;;;;;5065235;28;20056;-76
2023/06/04 00:40:03;;;;;;;13.68;4.63;;;;;;;;;;5101580;28;20043;-73
2023/06/04 00:42:33;;;;;;;14.05;4.55;;;;;;;;;;5105224;28;20051;-76
2023/06/04 00:45:07;;;;;;;11.13;4.43;;;;;;;;;;5108297;28;20054;-76
2023/06/04 00:47:38;;;;;;;11.98;4.97;;;;;;;;;;5108022;28;20051;-78
2023/06/04 00:50:10;;;;;;;13.70;5.13;;;;;;;;;;5105801;28;20043;-75
2023/06/04 00:52:40;;;;;;;8.85;4.20;;;;;;;;;;5107654;28;20043;-77
2023/06/04 00:55:12;;;;;;;9.45;4.45;;;;;;;;;;5105230;28;20042;-77
2023/06/04 00:57:43;;;;;;;8.00;3.83;;;;;;;;;;5088880;28;20056;-74
2023/06/04 01:00:14;;;;;;;5.97;3.65;;;;;;;;;;5108180;28;20516;-75
2023/06/04 01:02:50;;;;;;;16.70;4.00;;;;;;;;;;5085777;28;20048;-76
2023/06/04 01:05:34;;;;;;;8.18;4.00;;;;;;;;;;5089913;28;20494;-77
2023/06/04 01:08:08;;;;;;;8.32;4.25;;;;;;;;;;5107491;28;20409;-74
2023/06/04 01:10:53;;;;;;;9.32;4.05;;;;;;;;;;5088949;28;20055;-74
2023/06/04 01:13:25;;;;;;;8.70;4.75;;;;;;;;;;5087044;28;20048;-74
2023/06/04 01:15:56;;;;;;;8.77;4.95;;;;;;;;;;5105638;28;20032;-74
2023/06/04 01:18:28;;;;;;;14.02;4.50;;;;;;;;;;5086824;28;20052;-75
2023/06/04 01:21:03;;;;;;;7.85;4.28;;;;;;;;;;5106767;28;20051;-74
2023/06/04 01:23:59;;;;;;;10.52;4.65;;;;;;;;;;5107012;28;20050;-73
2023/06/04 01:26:31;;;;;;;10.77;4.20;;;;;;;;;;5087390;28;20052;-76
2023/06/04 01:29:02;;;;;;;12.15;3.80;;;;;;;;;;5104729;28;20047;-77
2023/06/04 01:31:33;;;;;;;7.75;3.90;;;;;;;;;;5104321;28;20047;-73
2023/06/04 01:34:02;;;;;;;5.70;3.38;;;;;;;;;;5103976;28;20047;-75
2023/06/04 01:36:32;;;;;;;6.85;4.45;;;;;;;;;;5086728;28;20048;-77
2023/06/04 01:39:03;;;;;;;8.23;3.95;;;;;;;;;;5103500;28;20059;-75
2023/06/04 01:41:34;;;;;;;10.13;5.38;;;;;;;;;;5105068;28;20043;-75
2023/06/04 01:44:04;;;;;;;8.90;4.38;;;;;;;;;;5105716;28;20518;-74
2023/06/04 01:46:34;;;;;;;10.68;4.28;;;;;;;;;;5108015;28;20047;-75
2023/06/04 01:49:06;;;;;;;10.32;4.15;;;;;;;;;;5107552;28;20398;-73
2023/06/04 01:51:37;;;;;;;9.50;5.90;;;;;;;;;;5107985;28;20047;-74
2023/06/04 01:54:09;;;;;;;11.05;4.60;;;;;;;;;;5107869;28;20515;-73
2023/06/04 01:56:41;;;;;;;14.90;6.00;;;;;;;;;;5088963;28;20413;-76
2023/06/04 01:59:11;;;;;;;14.50;7.07;;;;;;;;;;5088194;28;20052;-74
2023/06/04 02:01:42;;;;;;;15.13;6.22;;;;;;;;;;5088860;28;20513;-75
2023/06/04 02:04:13;;;;;;;13.25;5.28;;;;;;;;;;5107279;28;20048;-75
2023/06/04 02:06:44;;;;;;;7.47;4.80;;;;;;;;;;5089471;28;20063;-73
2023/06/04 02:09:13;;;;;;;15.70;7.22;;;;;;;;;;5088229;28;20052;-75
2023/06/04 02:11:45;;;;;;;17.73;6.15;;;;;;;;;;5107254;28;20043;-75
2023/06/04 02:14:16;;;;;;;13.13;5.40;;;;;;;;;;5089214;28;20482;-76
2023/06/04 02:16:49;;;;;;;11.05;4.68;;;;;;;;;;5106768;28;20055;-75
2023/06/04 02:19:20;;;;;;;14.95;6.43;;;;;;;;;;5107207;28;20514;-74
2023/06/04 02:21:50;;;;;;;9.60;5.35;;;;;;;;;;5107611;28;20516;-74
2023/06/04 02:24:22;;;;;;;9.35;4.38;;;;;;;;;;5106826;28;20054;-73
2023/06/04 02:26:53;;;;;;;8.20;4.68;;;;;;;;;;5106825;28;20529;-75
2023/06/04 02:29:23;;;;;;;8.90;4.53;;;;;;;;;;5106522;28;20041;-76
2023/06/04 02:31:54;;;;;;;;;;;;;;;;;;5107601;28;20043;-74
2023/06/04 02:34:26;;;;;;;6.18;3.60;;;;;;;;;;5087796;28;19930;-74
2023/06/04 02:36:58;;;;;;;9.77;4.00;;;;;;;;;;5107280;28;20043;-73
2023/06/04 02:39:28;;;;;;;6.95;4.20;;;;;;;;;;5087826;28;20051;-73
2023/06/04 02:42:00;;;;;;;10.57;4.00;;;;;;;;;;5106033;28;20441;-75
2023/06/04 02:44:32;;;;;;;6.55;3.60;;;;;;;;;;5087169;28;20050;-74
2023/06/04 02:47:02;;;;;;;7.15;4.00;;;;;;;;;;5087119;28;20060;-74
2023/06/04 02:49:32;;;;;;;7.70;3.78;;;;;;;;;;5087373;28;20048;-75
2023/06/04 02:52:02;;;;;;;7.38;3.53;;;;;;;;;;5106364;28;20051;-74
2023/06/04 02:54:33;;;;;;;17.27;5.25;;;;;;;;;;5106200;28;20047;-74
2023/06/04 02:57:06;;;;;;;12.52;4.63;;;;;;;;;;5104850;28;20600;-76
2023/06/04 02:59:37;;;;;;;9.80;3.90;;;;;;;;;;5105933;28;20521;-73
2023/06/04 03:02:06;;;;;;;;;;;;;;;;;;5087752;28;20055;-75
2023/06/04 03:04:36;;;;;;;6.43;3.25;;;;;;;;;;5105856;28;19927;-74
2023/06/04 03:07:11;;;;;;;9.38;3.70;;;;;;;;;;5105438;28;20046;-73
2023/06/04 03:09:42;;;;;;;10.10;4.35;;;;;;;;;;5105993;28;20039;-74
2023/06/04 03:12:12;;;;;;;11.93;4.82;;;;;;;;;;5087352;28;20052;-73
2023/06/04 03:14:41;;;;;;;;;;;;;;;;;;5106510;28;20048;-73
2023/06/04 03:17:12;;;;;;;6.32;3.25;;;;;;;;;;5106409;28;19923;-72
2023/06/04 03:19:44;;;;;;;10.63;3.80;;;;;;;;;;5105537;28;20054;-75
2023/06/04 03:22:14;;;;;;;8.45;3.58;;;;;;;;;;5105644;28;20051;-75
2023/06/04 03:24:46;;;;;;;6.68;4.03;;;;;;;;;;5105933;28;20501;-76
2023/06/04 03:27:16;;;;;;;5.97;3.13;;;;;;;;;;5086934;28;20058;-75
2023/06/04 03:29:48;;;;;;;7.22;3.28;;;;;;;;;;5087849;28;20039;-74
2023/06/04 03:32:19;;;;;;;5.50;3.53;;;;;;;;;;5087332;28;20064;-75
2023/06/04 03:34:49;;;;;;;5.35;3.00;;;;;;;;;;5105337;28;20047;-73
2023/06/04 03:37:19;;;;;;;13.35;3.53;;;;;;;;;;5105722;28;20054;-76
2023/06/04 03:39:49;;;;;;;7.35;3.33;;;;;;;;;;5086865;28;20517;-76
2023/06/04 03:42:21;;;;;;;9.95;3.78;;;;;;;;;;5086313;28;20062;-74
2023/06/04 03:44:53;;;;;;;4.95;3.00;;;;;;;;;;5086883;28;20063;-75
2023/06/04 03:47:24;;;;;;;6.85;3.13;;;;;;;;;;5086881;28;20051;-74
2023/06/04 03:49:55;;;;;;;5.22;3.13;;;;;;;;;;5105739;28;20497;-74
2023/06/04 03:52:26;;;;;;;9.15;3.03;;;;;;;;;;5086832;28;20047;-73
2023/06/04 03:55:00;;;;;;;9.50;3.50;;;;;;;;;;5086503;28;20074;-75
2023/06/04 03:57:32;;;;;;;7.53;3.00;;;;;;;;;;5086481;28;20086;-74
2023/06/04 04:00:03;;;;;;;6.43;3.58;;;;;;;;;;5086396;28;20055;-74
2023/06/04 04:02:42;;;;;;;5.70;3.42;;;;;;;;;;5109828;28;20067;-76
2023/06/04 04:05:26;;;;;;;6.75;3.33;;;;;;;;;;5087148;28;20097;-75
2023/06/04 04:07:57;;;;;;;9.52;3.47;;;;;;;;;;5087322;28;20051;-74
2023/06/04 04:10:31;;;;;;;5.43;3.20;;;;;;;;;;5087394;28;20047;-74
2023/06/04 04:13:02;;;;;;;6.82;3.17;;;;;;;;;;5105338;28;20051;-75
2023/06/04 04:15:35;;;;;;;9.98;3.55;;;;;;;;;;5087434;28;20054;-74
2023/06/04 04:18:10;;;;;;;5.30;3.28;;;;;;;;;;5072429;28;20051;-75
2023/06/04 04:20:41;;;;;;;5.22;3.60;;;;;;;;;;5108331;28;20056;-76
2023/06/04 04:23:13;;;;;;;6.63;3.50;;;;;;;;;;5090374;28;20056;-74
2023/06/04 04:25:48;;;;;;;6.72;3.92;;;;;;;;;;5108448;28;20074;-75
2023/06/04 04:28:21;;;;;;;8.30;3.92;;;;;;;;;;5090461;28;20510;-75
2023/06/04 04:30:52;;;;;;;7.57;3.10;;;;;;;;;;5109226;28;20039;-74
2023/06/04 04:33:24;;;;;;;7.45;3.65;;;;;;;;;;5108923;28;20043;-74
2023/06/04 04:35:59;;;;;;;6.63;3.33;;;;;;;;;;5090438;28;20513;-74
2023/06/04 04:38:31;;;;;;;4.38;3.13;;;;;;;;;;5090178;28;20052;-75
2023/06/04 04:41:04;;;;;;;6.88;3.67;;;;;;;;;;5090130;28;20414;-75
2023/06/04 04:43:39;;;;;;;5.72;3.65;;;;;;;;;;5108612;28;20062;-74
2023/06/04 04:46:20;;;;;;;5.80;3.50;;;;;;;;;;5090195;28;20043;-74
2023/06/04 04:48:52;;;;;;;6.63;3.40;;;;;;;;;;5089404;28;20054;-76
2023/06/04 04:51:23;;;;;;;8.52;3.95;;;;;;;;;;5090298;28;20051;-75
2023/06/04 04:53:56;;;;;;;5.47;3.30;;;;;;;;;;5089533;28;20047;-76
2023/06/04 04:56:28;;;;;;;4.70;2.95;;;;;;;;;;5073179;28;20070;-76
2023/06/04 04:58:59;;;;;;;6.90;3.75;;;;;;;;;;5090229;28;20422;-75
2023/06/04 05:01:29;;;;;;;6.57;3.45;;;;;;;;;;5108649;28;20048;-76
2023/06/04 05:04:01;;;;;;;8.60;3.25;;;;;;;;;;5089050;28;20059;-74
2023/06/04 05:06:34;;;;;;;6.18;3.58;;;;;;;;;;5089778;28;20052;-77
2023/06/04 05:09:07;;;;;;;4.75;3.03;;;;;;;;;;5090042;28;20058;-74
2023/06/04 05:11:37;;;;;;;6.68;3.22;;;;;;;;;;5089651;28;20133;-74
2023/06/04 05:14:08;;;;;;;5.70;3.00;;;;;;;;;;5108266;28;20047;-75
2023/06/04 05:16:41;;;;;;;5.05;3.47;;;;;;;;;;5090099;28;20051;-75
2023/06/04 05:19:13;;;;;;;4.80;3.28;;;;;;;;;;5089298;28;20056;-78
2023/06/04 05:21:44;;;;;;;8.65;3.67;;;;;;;;;;5089354;28;20056;-74
2023/06/04 05:24:15;;;;;;;10.02;3.83;;;;;;;;;;5089163;28;20043;-76
2023/06/04 05:26:48;;;;;;;7.60;3.22;;;;;;;;;;5089080;28;20059;-75
2023/06/04 05:29:23;;;;;;;6.85;3.55;;;;;;;;;;5088461;28;20048;-75
2023/06/04 05:31:54;;;;;;;5.20;3.15;;;;;;;;;;5089323;28;20056;-75
2023/06/04 05:34:26;;;;;;;6.82;3.30;;;;;;;;;;5089388;28;20063;-75
2023/06/04 05:36:57;;;;;;;5.93;2.85;;;;;;;;;;5088780;28;20039;-74
2023/06/04 05:39:28;;;;;;;5.93;3.00;;;;;;;;;;5088701;28;20046;-73
2023/06/04 05:42:06;;;;;;;6.68;3.35;;;;;;;;;;5089493;28;20043;-73
2023/06/04 05:44:37;;;;;;;4.78;3.10;;;;;;;;;;5089252;28;20058;-75
2023/06/04 05:47:11;;;;;;;6.60;2.72;;;;;;;;;;5089385;28;20801;-76
2023/06/04 05:49:41;;;;;;;7.05;3.90;;;;;;;;;;5088911;28;20056;-77
2023/06/04 05:52:11;;;;;;;4.40;3.00;;;;;;;;;;5088450;28;20047;-76
2023/06/04 05:54:43;;;;;;;7.45;3.05;;;;;;;;;;5089138;28;20396;-73
2023/06/04 05:57:17;;;;;;;5.82;3.15;;;;;;;;;;5088618;28;20055;-76
2023/06/04 05:59:48;;;;;;;4.53;3.13;;;;;;;;;;5089065;28;20059;-74
2023/06/04 06:02:20;;;;;;;7.72;3.15;;;;;;;;;;5088796;28;20650;-75
2023/06/04 06:04:50;;;;;;;6.13;3.53;;;;;;;;;;5088096;28;20040;-73
2023/06/04 06:07:21;;;;;;;5.82;2.85;;;;;;;;;;5108046;28;20047;-75
2023/06/04 06:09:52;;;;;;;6.47;3.50;;;;;;;;;;5088781;28;20044;-75
2023/06/04 06:12:23;;;;;;;6.68;3.20;;;;;;;;;;5088750;28;20530;-76
2023/06/04 06:14:53;;;;;;;8.13;3.05;;;;;;;;;;5087797;28;20047;-74
2023/06/04 06:17:25;;;;;;;5.80;3.05;;;;;;;;;;5107030;28;20047;-75
2023/06/04 06:19:57;;;;;;;4.05;2.65;;;;;;;;;;5087999;28;20059;-76
2023/06/04 06:22:27;;;;;;;6.45;3.30;;;;;;;;;;5088250;28;20051;-75
2023/06/04 06:24:58;;;;;;;7.78;3.67;;;;;;;;;;5107278;28;20036;-75
2023/06/04 06:27:29;;;;;;;8.55;3.10;;;;;;;;;;5107584;28;20580;-76
2023/06/04 06:30:00;;;;;;;7.28;3.30;;;;;;;;;;5087380;28;20056;-76
2023/06/04 06:32:33;;;;;;;4.78;2.95;;;;;;;;;;5106673;28;20055;-73
2023/06/04 06:35:04;;;;;;;5.40;2.92;;;;;;;;;;5106871;28;20058;-74
2023/06/04 06:37:34;;;;;;;8.52;2.90;;;;;;;;;;5106569;28;20506;-74
2023/06/04 06:40:05;;;;;;;8.07;3.70;;;;;;;;;;5105415;28;20047;-75
2023/06/04 06:42:36;;;;;;;4.07;2.50;;;;;;;;;;5107129;28;20040;-75
2023/06/04 06:45:10;;;;;;;4.53;2.70;;;;;;;;;;5089209;28;20043;-76
2023/06/04 06:47:41;;;;;;;7.82;3.83;;;;;;;;;;5106231;28;20047;-76
2023/06/04 06:50:11;;;;;;;3.50;2.35;;;;;;;;;;5105530;28;20437;-76
2023/06/04 06:52:41;;;;;;;5.38;2.95;;;;;;;;;;5106221;28;20047;-74
2023/06/04 06:55:13;;;;;;;5.95;3.03;;;;;;;;;;5106411;28;20044;-75
2023/06/04 06:57:45;;;;;;;4.85;2.72;;;;;;;;;;5106405;28;20047;-75
2023/06/04 07:00:16;;;;;;;4.03;2.78;;;;;;;;;;5106214;28;20514;-76
2023/06/04 07:02:47;;;;;;;5.15;3.30;;;;;;;;;;5087696;28;20039;-75
2023/06/04 07:05:18;;;;;;;3.75;2.38;;;;;;;;;;5106029;28;20047;-74
2023/06/04 07:07:48;;;;;;;5.47;3.05;;;;;;;;;;5106013;28;20525;-73
2023/06/04 07:10:18;;;;;;;4.05;2.83;;;;;;;;;;5106168;28;20055;-76
2023/06/04 07:12:48;;;;;;;;;;;;;;;;;;5106966;28;20067;-76
2023/06/04 07:15:18;;;;;;;8.73;3.15;;;;;;;;;;5105840;28;19923;-74
2023/06/04 07:17:50;;;;;;;3.67;2.78;;;;;;;;;;5106137;28;20043;-76
2023/06/04 07:20:22;;;;;;;8.85;3.10;;;;;;;;;;5106073;28;20054;-76
2023/06/04 07:22:53;;;;;;;5.32;2.63;;;;;;;;;;5106061;28;20051;-74
2023/06/04 07:25:23;;;;;;;;;;;;;;;;;;5106260;28;20044;-76
2023/06/04 07:27:57;;;;;;;5.40;2.83;;;;;;;;;;5105911;28;19927;-76
2023/06/04 07:30:29;;;;;;;4.80;3.00;;;;;;;;;;5105608;28;20066;-76
2023/06/04 07:33:00;;;;;;;7.40;3.10;;;;;;;;;;5105918;28;20051;-77
2023/06/04 07:35:30;;;;;;;5.28;3.30;;;;;;;;;;5106144;28;20044;-76
2023/06/04 07:38:01;;;;;;;6.78;3.03;;;;;;;;;;5105951;28;20055;-74
2023/06/04 07:40:33;;;;;;;5.50;3.25;;;;;;;;;;5088103;28;21213;-75
2023/06/04 07:43:03;;;;;;;5.75;3.67;;;;;;;;;;5105971;28;20052;-74
2023/06/04 07:45:32;;;;;;;;;;;;;;;;;;5088126;28;20055;-75
2023/06/04 07:48:04;;;;;;;5.25;3.15;;;;;;;;;;5105355;28;19928;-77
2023/06/04 07:50:35;;;;;;;5.57;3.22;;;;;;;;;;5105359;28;20048;-74
2023/06/04 07:53:10;;;;;;;8.88;3.60;;;;;;;;;;5104852;28;20058;-76
2023/06/04 07:55:40;;;;;;;8.27;3.60;;;;;;;;;;5105955;28;20047;-76
2023/06/04 07:58:10;;;;;;;6.43;4.10;;;;;;;;;;5086658;28;20062;-76
2023/06/04 08:00:40;;;;;;;8.18;3.88;;;;;;;;;;5105396;28;20047;-74
2023/06/04 08:03:10;;;;;;;;;;;;;;;;;;5105616;28;20051;-77
2023/06/04 08:05:41;;;;;;;5.45;3.20;;;;;;;;;;5105620;28;19924;-76
2023/06/04 08:08:12;;;;;;;4.70;3.53;;;;;;;;;;5105477;28;20043;-74
2023/06/04 08:10:41;;;;;;;;;;;;;;;;;;5106105;28;20054;-76
2023/06/04 08:13:12;;;;;;;6.20;3.55;;;;;;;;;;5104822;28;19931;-76
2023/06/04 08:15:44;;;;;;;5.45;3.50;;;;;;;;;;5104991;28;20044;-74
2023/06/04 08:18:16;;;;;;;6.70;3.60;;;;;;;;;;5104720;28;20043;-74
2023/06/04 08:20:47;;;;;;;6.50;3.75;;;;;;;;;;5105143;28;20520;-75
2023/06/04 08:23:16;;;;;;;;;;;;;;;;;;5105666;28;20414;-74
2023/06/04 08:25:46;;;;;;;6.63;3.60;;;;;;;;;;5105547;28;20302;-75
2023/06/04 08:28:19;;;;;;;5.55;3.53;;;;;;;;;;5104797;28;20047;-75
2023/06/04 08:30:50;;;;;;;6.80;3.97;;;;;;;;;;5105354;28;20058;-74
2023/06/04 08:33:20;;;;;;;9.20;3.63;;;;;;;;;;5104877;28;20043;-74
2023/06/04 08:35:50;;;;;;;;;;;;;;;;;;5105760;28;20054;-74
2023/06/04 08:38:20;;;;;;;6.55;3.38;;;;;;;;;;5105397;28;19951;-74
2023/06/04 08:40:56;;;;;;;6.72;3.58;;;;;;;;;;5105029;28;20051;-75
2023/06/04 08:43:27;;;;;;;5.25;3.45;;;;;;;;;;5105035;28;20089;-75
2023/06/04 08:46:06;;;;;;;8.35;3.92;;;;;;;;;;5105252;28;20490;-73
2023/06/04 08:48:39;;;;;;;7.13;3.92;;;;;;;;;;5105384;28;20047;-77
2023/06/04 08:51:12;;;;;;;6.07;3.45;;;;;;;;;;5105545;28;20035;-74
2023/06/04 08:53:49;;;;;;;5.75;3.63;;;;;;;;;;5105054;28;20043;-76
2023/06/04 08:56:22;;;;;;;6.28;3.88;;;;;;;;;;5104973;28;20064;-76
2023/06/04 08:58:56;;;;;;;6.28;3.60;;;;;;;;;;5105141;28;20419;-75
2023/06/04 09:01:28;;;;;;;5.97;3.22;;;;;;;;;;5105420;28;20043;-74
2023/06/04 09:04:04;;;;;;;4.78;3.60;;;;;;;;;;5106503;28;20044;-77
2023/06/04 09:06:43;;;;;;;7.38;3.53;;;;;;;;;;5108421;28;20090;-74
2023/06/04 09:09:15;;;;;;;5.00;3.25;;;;;;;;;;5108154;28;20409;-74
2023/06/04 09:11:56;;;;;;;6.00;3.95;;;;;;;;;;5108862;28;20422;-75
2023/06/04 09:14:27;;;;;;;6.65;4.05;;;;;;;;;;5107839;28;20050;-77
2023/06/04 09:16:58;;;;;;;7.05;4.15;;;;;;;;;;5108095;28;20509;-76
2023/06/04 09:19:29;;;;;;;6.72;4.20;;;;;;;;;;5108962;28;20051;-76
2023/06/04 09:22:03;;;;;;;7.70;4.20;;;;;;;;;;5108242;28;20047;-76
2023/06/04 09:24:52;;;;;;;5.95;3.67;;;;;;;;;;5107868;28;20627;-74
2023/06/04 09:27:23;;;;;;;6.28;3.65;;;;;;;;;;5108132;28;20055;-77
2023/06/04 09:29:54;;;;;;;6.00;3.65;;;;;;;;;;5108102;28;20035;-75
2023/06/04 09:32:27;;;;;;;8.90;3.83;;;;;;;;;;5108180;28;20044;-77
2023/06/04 09:35:14;;;;;;;7.43;4.07;;;;;;;;;;5107935;28;20050;-74
2023/06/04 09:37:56;;;;;;;8.18;4.55;;;;;;;;;;5108139;28;20051;-74
2023/06/04 09:40:37;;;;;;;4.80;3.40;;;;;;;;;;5089116;28;20506;-76
2023/06/04 09:43:11;;;;;;;4.68;3.60;;;;;;;;;;5107501;28;20414;-74
2023/06/04 09:45:41;;;;;;;7.18;3.30;;;;;;;;;;5107523;28;20043;-73
2023/06/04 09:48:21;;;;;;;5.00;3.30;;;;;;;;;;5089757;28;20597;-74
2023/06/04 09:50:51;;;;;;;6.28;3.55;;;;;;;;;;5107594;28;20051;-75
2023/06/04 09:53:25;;;;;;;5.50;3.67;;;;;;;;;;5089039;28;20043;-75
2023/06/04 09:56:03;;;;;;;4.93;3.53;;;;;;;;;;5107305;28;20398;-74
2023/06/04 09:58:34;;;;;;;7.93;3.80;;;;;;;;;;5107161;28;20054;-74
2023/06/04 10:01:06;;;;;;;6.05;3.83;;;;;;;;;;5107698;28;20047;-76
2023/06/04 10:03:37;;;;;;;6.15;3.47;;;;;;;;;;5107673;28;20070;-74
2023/06/04 10:06:10;;;;;;;7.32;3.60;;;;;;;;;;5107643;28;20058;-75
2023/06/04 10:08:42;;;;;;;6.60;3.75;;;;;;;;;;5107432;28;20048;-75
2023/06/04 10:11:17;;;;;;;8.00;3.95;;;;;;;;;;5089708;28;20054;-74
2023/06/04 10:14:01;;;;;;;6.25;3.65;;;;;;;;;;5106810;28;20035;-77
2023/06/04 10:16:32;;;;;;;8.88;3.92;;;;;;;;;;5107392;28;20048;-76
2023/06/04 10:19:07;;;;;;;6.93;3.95;;;;;;;;;;5106784;28;20402;-76
2023/06/04 10:21:38;;;;;;;5.90;3.67;;;;;;;;;;5107427;28;20054;-76
2023/06/04 10:24:09;;;;;;;7.85;3.95;;;;;;;;;;5107514;28;20040;-74
2023/06/04 10:26:42;;;;;;;6.35;4.07;;;;;;;;;;5088399;28;20422;-75
2023/06/04 10:29:14;;;;;;;5.00;3.38;;;;;;;;;;5106866;28;20074;-74
2023/06/04 10:31:45;;;;;;;8.73;4.00;;;;;;;;;;5106901;28;20051;-74
2023/06/04 10:34:17;;;;;;;7.45;4.28;;;;;;;;;;5088821;28;20039;-76
2023/06/04 10:36:48;;;;;;;7.93;4.38;;;;;;;;;;5106799;28;20047;-75
2023/06/04 10:39:32;;;;;;;7.40;5.32;;;;;;;;;;5106589;28;20040;-75
2023/06/04 10:42:05;;;;;;;10.05;5.97;;;;;;;;;;5106450;28;20510;-77
2023/06/04 10:44:49;;;;;;;8.35;5.25;;;;;;;;;;5106151;28;20043;-77
2023/06/04 10:47:25;;;;;;;9.77;5.32;;;;;;;;;;5106629;28;20044;-74
2023/06/04 10:50:06;;;;;;;9.65;5.80;;;;;;;;;;5106650;28;20070;-74
2023/06/04 10:52:37;;;;;;;8.02;5.57;;;;;;;;;;5106581;28;20047;-75
2023/06/04 10:55:09;;;;;;;11.27;4.80;;;;;;;;;;5107119;28;20044;-76
2023/06/04 10:57:40;;;;;;;8.68;5.25;;;;;;;;;;5106268;28;20032;-75
2023/06/04 11:00:12;;;;;;;17.52;7.00;;;;;;;;;;5106890;28;20051;-75
2023/06/04 11:02:55;;;;;;;13.65;6.68;;;;;;;;;;5105829;28;20039;-74
2023/06/04 11:05:37;;;;;;;8.40;5.20;;;;;;;;;;5106070;28;20474;-76
2023/06/04 11:08:13;;;;;;;9.43;5.45;;;;;;;;;;5106440;28;20426;-75
2023/06/04 11:10:46;;;;;;;8.80;5.32;;;;;;;;;;5105887;28;20051;-75
2023/06/04 11:13:26;;;;;;;7.63;4.07;;;;;;;;;;5087411;28;20110;-77
2023/06/04 11:15:57;;;;;;;5.88;3.80;;;;;;;;;;5106075;28;20051;-75
2023/06/04 11:18:28;;;;;;;7.15;3.60;;;;;;;;;;5105990;28;20047;-74
2023/06/04 11:21:01;;;;;;;8.10;3.60;;;;;;;;;;5105746;28;20047;-76
2023/06/04 11:23:33;;;;;;;8.77;3.95;;;;;;;;;;5105832;28;20040;-75
2023/06/04 11:26:05;;;;;;;10.82;3.80;;;;;;;;;;5105767;28;20040;-75
2023/06/04 11:28:37;;;;;;;5.45;3.20;;;;;;;;;;5106235;28;20058;-75
2023/06/04 11:31:08;;;;;;;6.63;3.47;;;;;;;;;;5088499;28;20047;-76
2023/06/04 11:33:46;;;;;;;10.80;3.50;;;;;;;;;;5105518;28;20053;-75
2023/06/04 11:36:29;;;;;;;7.03;3.40;;;;;;;;;;5105275;28;20044;-74
2023/06/04 11:39:03;;;;;;;7.45;3.70;;;;;;;;;;5105712;28;20048;-77
2023/06/04 11:41:35;;;;;;;6.22;3.35;;;;;;;;;;5104687;28;20505;-76
2023/06/04 11:44:06;;;;;;;6.57;3.67;;;;;;;;;;5105432;28;20059;-77
2023/06/04 11:46:48;;;;;;;15.25;3.60;;;;;;;;;;5105979;28;20510;-75
2023/06/04 11:49:19;;;;;;;6.55;3.40;;;;;;;;;;5105431;28;20044;-78
2023/06/04 11:51:53;;;;;;;9.38;3.50;;;;;;;;;;5105696;28;20045;-78
2023/06/04 11:54:24;;;;;;;4.45;3.50;;;;;;;;;;5104956;28;20051;-74
2023/06/04 11:56:56;;;;;;;6.05;4.20;;;;;;;;;;5105146;28;20063;-75
2023/06/04 11:59:27;;;;;;;6.50;3.53;;;;;;;;;;5105563;28;20741;-75
2023/06/04 12:02:00;;;;;;;6.88;3.53;;;;;;;;;;5105615;28;20047;-77
2023/06/04 12:04:31;;;;;;;12.23;3.30;;;;;;;;;;5105670;28;20078;-76
2023/06/04 12:07:05;;;;;;;7.13;4.00;;;;;;;;;;5105358;28;20052;-77
2023/06/04 12:09:37;;;;;;;5.38;3.40;;;;;;;;;;5104924;28;20055;-76
2023/06/04 12:12:08;;;;;;;5.93;3.33;;;;;;;;;;5105319;28;20044;-75
2023/06/04 12:14:39;;;;;;;8.95;3.10;;;;;;;;;;5086786;28;20043;-77
2023/06/04 12:17:10;;;;;;;6.18;4.28;;;;;;;;;;5105707;28;20047;-75
2023/06/04 12:19:50;;;;;;;10.98;4.32;;;;;;;;;;5105007;28;20498;-77
2023/06/04 12:22:22;;;;;;;7.22;3.53;;;;;;;;;;5087762;28;20513;-83
2023/06/04 12:24:55;;;;;;;6.90;4.13;;;;;;;;;;5105443;28;20044;-77
2023/06/04 12:27:27;;;;;;;7.82;2.90;;;;;;;;;;5104737;28;20051;-78
2023/06/04 12:29:59;;;;;;;7.53;2.63;;;;;;;;;;5104815;28;20047;-76
2023/06/04 12:32:36;;;;;;;3.90;2.60;;;;;;;;;;5104858;28;20050;-76
2023/06/04 12:35:07;;;;;;;7.35;2.65;;;;;;;;;;5105442;28;20381;-75
2023/06/04 12:37:39;;;;;;;5.72;2.83;;;;;;;;;;5087408;28;20510;-77
2023/06/04 12:40:11;;;;;;;5.72;2.53;;;;;;;;;;5108747;28;20047;-75
2023/06/04 12:42:43;;;;;;;4.88;2.60;;;;;;;;;;5108703;28;20529;-76
2023/06/04 12:45:14;;;;;;;7.80;2.83;;;;;;;;;;5108843;28;20047;-76
2023/06/04 12:47:46;;;;;;;15.07;3.10;;;;;;;;;;5108808;28;20076;-76
2023/06/04 12:50:18;;;;;;;7.93;3.30;;;;;;;;;;5107995;28;20054;-75
2023/06/04 12:52:50;;;;;;;6.38;3.67;;;;;;;;;;5090755;28;20051;-78
2023/06/04 12:55:20;;;;;;;16.40;3.65;;;;;;;;;;5090532;28;20063;-80
2023/06/04 12:57:55;;;;;;;9.10;2.90;;;;;;;;;;5108518;28;20048;-74
2023/06/04 13:00:25;;;;;;;5.90;2.88;;;;;;;;;;5107405;28;20067;-73
2023/06/04 13:02:57;;;;;;;5.82;2.50;;;;;;;;;;5108500;28;20413;-77
2023/06/04 13:05:27;;;;;;;6.40;2.72;;;;;;;;;;5107776;28;20528;-74
2023/06/04 13:07:59;;;;;;;7.68;2.90;;;;;;;;;;5108228;28;20059;-72
2023/06/04 13:10:30;;;;;;;5.13;2.60;;;;;;;;;;5108694;28;20044;-73
2023/06/04 13:13:00;;;;;;;7.55;2.75;;;;;;;;;;5108153;28;20490;-74
2023/06/04 13:15:30;;;;;;;7.30;2.80;;;;;;;;;;5107974;28;20497;-74
2023/06/04 13:18:00;;;;;;;10.05;2.60;;;;;;;;;;5108417;28;20044;-76
2023/06/04 13:20:31;;;;;;;4.88;2.50;;;;;;;;;;5108409;28;20043;-72
2023/06/04 13:23:01;;;;;;;8.07;3.65;;;;;;;;;;5108538;28;20062;-74
2023/06/04 13:25:35;;;;;;;6.50;2.40;;;;;;;;;;5108026;28;20051;-78
2023/06/04 13:28:07;;;;;;;4.53;2.60;;;;;;;;;;5108029;28;20044;-76
2023/06/04 13:30:39;;;;;;;15.43;3.72;;;;;;;;;;5107148;28;20048;-73
2023/06/04 13:33:10;;;;;;;6.03;2.33;;;;;;;;;;5108290;28;20521;-74
2023/06/04 13:35:42;;;;;;;12.15;2.58;;;;;;;;;;5108411;28;20529;-75
2023/06/04 13:38:13;;;;;;;12.38;7.05;;;;;;;;;;5108161;28;20039;-74
2023/06/04 13:40:43;;;;;;;3.70;2.03;;;;;;;;;;5108381;28;20044;-81
2023/06/04 13:43:15;;;;;;;3.47;1.73;;;;;;;;;;5089150;28;20066;-73
2023/06/04 13:45:45;;;;;;;2.40;1.38;;;;;;;;;;5107340;28;20054;-75
2023/06/04 13:48:18;;;;;;;4.75;1.88;;;;;;;;;;5107709;28;20060;-73
2023/06/04 13:50:48;;;;;;;5.30;2.00;;;;;;;;;;5107830;28;20044;-74
2023/06/04 13:53:18;;;;;;;6.43;2.00;;;;;;;;;;5107286;28;20082;-75
2023/06/04 13:55:48;;;;;;;8.00;1.63;;;;;;;;;;5107021;28;20556;-75
2023/06/04 13:58:19;;;;;;;9.15;2.40;;;;;;;;;;5106721;28;20048;-78
2023/06/04 14:00:51;;;;;;;2.95;1.70;;;;;;;;;;5107218;28;20047;-75
2023/06/04 14:03:21;;;;;;;2.33;1.63;;;;;;;;;;5107053;28;20048;-74
2023/06/04 14:05:51;;;;;;;5.95;1.55;;;;;;;;;;5088746;28;20048;-74
2023/06/04 14:08:22;;;;;;;5.63;1.80;;;;;;;;;;5105813;28;20039;-74
2023/06/04 14:10:54;;;;;;;3.35;1.60;;;;;;;;;;5106153;28;20047;-74
2023/06/04 14:13:26;;;;;;;2.72;1.77;;;;;;;;;;5106945;28;20044;-74
2023/06/04 14:15:56;;;;;;;42.28;3.38;;;;;;;;;;5107368;28;20039;-77
2023/06/04 14:18:26;;;;;;;4.10;2.17;;;;;;;;;;5107534;28;20043;-74
2023/06/04 14:20:56;;;;;;;3.35;1.98;;;;;;;;;;5107582;28;20047;-74
2023/06/04 14:23:27;;;;;;;5.13;2.17;;;;;;;;;;5106775;28;20525;-74
2023/06/04 14:25:59;;;;;;;6.10;2.20;;;;;;;;;;5107254;28;20056;-77
2023/06/04 14:28:29;;;;;;;8.07;2.38;;;;;;;;;;5106473;28;20051;-75
2023/06/04 14:31:02;;;;;;;8.50;2.92;;;;;;;;;;5087791;28;20075;-77
2023/06/04 14:33:35;;;;;;;3.80;2.08;;;;;;;;;;5106302;28;20035;-73
2023/06/04 14:36:05;;;;;;;4.38;2.05;;;;;;;;;;5107300;28;20047;-74
2023/06/04 14:38:37;;;;;;;3.78;2.42;;;;;;;;;;5088413;28;20409;-76
2023/06/04 14:41:07;;;;;;;7.10;3.20;;;;;;;;;;5088371;28;20050;-74
2023/06/04 14:43:38;;;;;;;4.38;2.85;;;;;;;;;;5105966;28;20054;-74
2023/06/04 14:46:08;;;;;;;5.13;2.35;;;;;;;;;;5106961;28;20047;-74
2023/06/04 14:48:39;;;;;;;6.05;2.42;;;;;;;;;;5106383;28;20036;-74
2023/06/04 14:51:10;;;;;;;4.78;2.25;;;;;;;;;;5106847;28;20051;-74
2023/06/04 14:53:41;;;;;;;9.13;2.72;;;;;;;;;;5106535;28;20398;-79
2023/06/04 14:56:13;;;;;;;5.05;2.53;;;;;;;;;;5106593;28;20063;-75
2023/06/04 14:58:43;;;;;;;5.38;2.75;;;;;;;;;;5106618;28;20054;-75
2023/06/04 15:01:13;;;;;;;4.60;2.40;;;;;;;;;;5105738;28;20074;-75
2023/06/04 15:03:43;;;;;;;7.63;2.97;;;;;;;;;;5106080;28;20051;-74
2023/06/04 15:06:15;;;;;;;4.38;2.67;;;;;;;;;;5106306;28;20036;-75
2023/06/04 15:08:50;;;;;;;9.00;3.30;;;;;;;;;;5106099;28;20107;-77
2023/06/04 15:11:21;;;;;;;4.45;3.10;;;;;;;;;;5088485;28;20548;-74
2023/06/04 15:13:55;;;;;;;7.95;3.83;;;;;;;;;;5106355;28;20040;-74